»·PEaware :: N448RA KSMX-KBFL

N448RA :: KSMX-KBFL

FLIGHT INFORMATION

Flight Status: Arrived
Operator: Privately registered:
United States
More flights under this callsign
Pilot: Scott M. (16181)
Aircraft: Unknown
(DA62)
More flights by this aircraft type
Origin: KSMX Santa Maria Pub/Capt Hancock
United States
Destination: KBFL Meadows
United States
More flights between these airports :: More routes between these airports
Route:
File this flight plan on PilotEdge
Remarks:
Altitude:
(Current/Filed)
7,500ft
Speed:
(Current/Filed)
160kts
Departed: 02-Oct-18 06:40 PM
Arrived: 02-Oct-18 07:55 PM
Distance/Time
Traveled:
76nm/1:15
Distance/Time
To Go:
Arrived

Flight Plot

Page will automatically refresh every two minutes.


Map Options




Map Legend


Flown Route
Filed Route
Departure Airport
Arrival Airport
Navaid (VOR, NDB)
Fix

Horizontal Profiles

Position Reports

Time Latitude Longitude Heading Altitude Ground
Speed
02-Oct-18 18:35 34.897378 -120.446508 134 265ft 0kts
02-Oct-18 18:36 34.897378 -120.446508 134 265ft 0kts
02-Oct-18 18:37 34.897378 -120.446508 134 265ft 0kts
02-Oct-18 18:38 34.897258 -120.446451 184 265ft 3kts
02-Oct-18 18:39 34.895618 -120.446652 135 265ft 11kts
02-Oct-18 18:40 34.893332 -120.444936 179 265ft 0kts
02-Oct-18 18:41 34.893138 -120.444959 192 265ft 7kts
02-Oct-18 18:42 34.900935 -120.455755 314 395ft 92kts
02-Oct-18 18:43 34.919302 -120.456245 75 1254ft 96kts
02-Oct-18 18:44 34.926275 -120.425282 62 2138ft 97kts
02-Oct-18 18:45 34.932464 -120.393998 92 2902ft 96kts
02-Oct-18 18:46 34.934634 -120.367575 75 3562ft 91kts
02-Oct-18 18:47 34.942149 -120.338824 68 4355ft 87kts
02-Oct-18 18:48 34.951863 -120.310416 66 5174ft 93kts
02-Oct-18 18:49 34.962734 -120.281523 66 5981ft 94kts
02-Oct-18 18:50 34.973860 -120.252788 67 6784ft 93kts
02-Oct-18 18:51 34.984820 -120.224734 69 7525ft 89kts
02-Oct-18 18:52 34.997372 -120.192494 69 7555ft 108kts
02-Oct-18 18:53 35.007234 -120.164019 76 7452ft 88kts
02-Oct-18 18:54 35.003569 -120.136059 110 7198ft 87kts
02-Oct-18 18:55 34.993769 -120.106690 113 6810ft 95kts
02-Oct-18 18:56 34.984645 -120.078021 116 6637ft 91kts
02-Oct-18 18:57 34.977784 -120.046434 100 6242ft 103kts
02-Oct-18 18:58 34.973164 -120.012423 92 5766ft 107kts
02-Oct-18 18:59 34.972955 -119.980800 94 5334ft 78kts
02-Oct-18 19:00 34.971096 -119.949830 93 4688ft 93kts
02-Oct-18 19:01 34.968491 -119.916780 97 4067ft 100kts
02-Oct-18 19:02 34.965526 -119.884420 81 3630ft 91kts
02-Oct-18 19:03 34.962286 -119.853634 108 3258ft 91kts
02-Oct-18 19:04 34.955945 -119.824826 109 3052ft 90kts
02-Oct-18 19:05 34.948512 -119.796310 115 2921ft 87kts
02-Oct-18 19:06 34.943341 -119.767956 116 2765ft 84kts
02-Oct-18 19:07 34.935041 -119.740695 121 2668ft 91kts
02-Oct-18 19:08 34.925956 -119.709977 117 2647ft 100kts
02-Oct-18 19:09 34.913304 -119.682469 107 2745ft 85kts
02-Oct-18 19:10 34.929537 -119.664199 311 2514ft 87kts
02-Oct-18 19:11 34.941077 -119.687463 268 2197ft 82kts
02-Oct-18 19:12 34.943141 -119.692106 214 2153ft 0kts
02-Oct-18 19:15 34.896802 -120.445897 273 265ft 0kts
02-Oct-18 19:16 34.896802 -120.445897 273 265ft 0kts
02-Oct-18 19:17 34.896802 -120.445897 273 265ft 0kts
02-Oct-18 19:18 34.896873 -120.446821 255 265ft 10kts
02-Oct-18 19:19 34.894043 -120.444975 170 265ft 20kts
02-Oct-18 19:20 34.893212 -120.444941 185 265ft 8kts
02-Oct-18 19:21 34.901410 -120.457291 315 496ft 87kts
02-Oct-18 19:22 34.918442 -120.469551 46 1164ft 87kts
02-Oct-18 19:23 34.929052 -120.443110 67 1851ft 90kts
02-Oct-18 19:24 34.932268 -120.411669 85 2475ft 97kts
02-Oct-18 19:25 34.931739 -120.380248 74 3214ft 91kts
02-Oct-18 19:26 34.938275 -120.349719 66 3851ft 103kts
02-Oct-18 19:27 34.949801 -120.314369 59 4537ft 122kts
02-Oct-18 19:28 34.964715 -120.274646 58 5240ft 134kts
02-Oct-18 19:29 34.981106 -120.232444 58 5934ft 141kts
02-Oct-18 19:30 34.998310 -120.188495 59 6625ft 146kts
02-Oct-18 19:31 35.016164 -120.142914 61 7321ft 151kts
02-Oct-18 19:32 35.035747 -120.092881 62 7477ft 176kts
02-Oct-18 19:33 35.057345 -120.037516 62 7473ft 184kts
02-Oct-18 19:34 35.079410 -119.981564 67 7477ft 172kts
02-Oct-18 19:35 35.098543 -119.932000 68 7182ft 154kts
02-Oct-18 19:36 35.115968 -119.887014 67 6786ft 150kts
02-Oct-18 19:37 35.133743 -119.841150 66 6380ft 149kts
02-Oct-18 19:38 35.151375 -119.795615 65 5976ft 148kts
02-Oct-18 19:39 35.171047 -119.744723 64 5563ft 175kts
02-Oct-18 19:40 35.191557 -119.691617 63 5401ft 165kts
02-Oct-18 19:41 35.210618 -119.642251 62 5399ft 157kts
02-Oct-18 19:42 35.229288 -119.593870 62 5495ft 164kts
02-Oct-18 19:43 35.249127 -119.542131 62 5492ft 170kts
02-Oct-18 19:44 35.269260 -119.489697 62 5492ft 170kts
02-Oct-18 19:45 35.289245 -119.437517 62 5492ft 169kts
02-Oct-18 19:46 35.309049 -119.385812 62 5145ft 167kts
02-Oct-18 19:47 35.327874 -119.336542 62 4661ft 158kts
02-Oct-18 19:48 35.346037 -119.288949 62 4015ft 151kts
02-Oct-18 19:49 35.363246 -119.243729 61 3204ft 143kts
02-Oct-18 19:50 35.379794 -119.200328 61 2397ft 138kts
02-Oct-18 19:51 35.394201 -119.157718 79 1689ft 135kts
02-Oct-18 19:52 35.396479 -119.112270 85 1393ft 128kts
02-Oct-18 19:53 35.397490 -119.073285 87 1369ft 103kts
02-Oct-18 19:54 35.403131 -119.040658 51 1112ft 92kts
02-Oct-18 19:55 35.418833 -119.038079 314 871ft 74kts
02-Oct-18 19:56 35.433698 -119.056022 312 487ft 69kts
02-Oct-18 19:57 35.438172 -119.059899 66 495ft 0kts
02-Oct-18 19:58 35.436522 -119.057216 136 494ft 23kts
02-Oct-18 19:59 35.431844 -119.051564 135 493ft 21kts
02-Oct-18 20:00 35.429842 -119.047207 108 494ft 12kts

Navigation Log

Ident Type
1. KSMX Airport
2. KBFL Airport